Time;durP1;ratioP1;P1;durP2;ratioP2;P2;SDS_P1;SDS_P2;PMS_P1;PMS_P2;Temp;Humidity;BMP_temperature;BMP_pressure;BME280_temperature;BME280_humidity;BME280_pressure;Samples;Min_cycle;Max_cycle;Signal;HPM_P1;HPM_P2
2023/10/01 00:00:44;;;;;;;0.50;0.50;;;;;;;;;;4894913;29;20074;-81
2023/10/01 00:03:31;;;;;;;0.50;0.50;;;;;;;;;;4893983;29;20060;-80
2023/10/01 00:06:08;;;;;;;0.50;0.50;;;;;;;;;;4913616;29;20060;-80
2023/10/01 00:09:22;;;;;;;0.50;0.50;;;;;;;;;;4913853;29;20036;-80
2023/10/01 00:12:07;;;;;;;0.45;0.45;;;;;;;;;;4883298;29;20096;-81
2023/10/01 00:14:37;;;;;;;0.50;0.50;;;;;;;;;;4928781;29;20546;-80
2023/10/01 00:17:39;;;;;;;0.40;0.40;;;;;;;;;;4913680;29;20078;-80
2023/10/01 00:20:27;;;;;;;0.60;0.60;;;;;;;;;;4912489;29;20060;-80
2023/10/01 00:23:15;;;;;;;0.50;0.50;;;;;;;;;;4901236;29;20033;-80
2023/10/01 00:26:04;;;;;;;0.43;0.43;;;;;;;;;;4915076;29;20075;-78
2023/10/01 00:28:31;;;;;;;0.45;0.45;;;;;;;;;;4919517;29;20035;-80
2023/10/01 00:31:19;;;;;;;0.50;0.50;;;;;;;;;;4935460;29;20428;-80
2023/10/01 00:34:07;;;;;;;0.50;0.50;;;;;;;;;;4920760;29;20028;-79
2023/10/01 00:40:17;;;;;;;0.55;0.55;;;;;;;;;;4933646;29;20103;-81
2023/10/01 00:43:06;;;;;;;0.50;0.50;;;;;;;;;;4914688;29;20037;-80
2023/10/01 00:49:28;;;;;;;0.50;0.50;;;;;;;;;;4876888;29;20072;-81
2023/10/01 00:52:46;;;;;;;0.50;0.50;;;;;;;;;;4856094;29;20053;-80
2023/10/01 00:55:48;;;;;;;0.60;0.60;;;;;;;;;;4858998;29;20081;-81
2023/10/01 00:59:03;;;;;;;0.50;0.50;;;;;;;;;;4859955;29;20038;-82
2023/10/01 01:02:06;;;;;;;0.40;0.40;;;;;;;;;;4896588;29;20041;-80
2023/10/01 01:08:29;;;;;;;0.50;0.50;;;;;;;;;;4798407;30;20074;-81
2023/10/01 01:11:35;;;;;;;0.50;0.50;;;;;;;;;;4768038;30;20047;-82
2023/10/01 01:14:45;;;;;;;0.50;0.50;;;;;;;;;;4785663;30;20044;-81
2023/10/01 01:17:41;;;;;;;0.50;0.50;;;;;;;;;;4789447;30;20026;-80
2023/10/01 01:20:45;;;;;;;0.50;0.50;;;;;;;;;;4806531;30;20027;-80
2023/10/01 01:23:31;;;;;;;0.50;0.50;;;;;;;;;;4802875;29;20069;-80
2023/10/01 01:26:21;;;;;;;0.50;0.50;;;;;;;;;;4774969;30;20047;-80
2023/10/01 01:29:18;;;;;;;0.50;0.50;;;;;;;;;;4767813;30;20032;-81
2023/10/01 01:32:07;;;;;;;0.50;0.50;;;;;;;;;;4782259;30;20044;-80
2023/10/01 01:35:02;;;;;;;0.50;0.50;;;;;;;;;;4774177;30;20166;-80
2023/10/01 01:38:00;;;;;;;0.50;0.50;;;;;;;;;;4799794;30;20043;-80
2023/10/01 01:41:12;;;;;;;0.50;0.50;;;;;;;;;;4783900;30;20040;-80
2023/10/01 01:44:01;;;;;;;0.50;0.50;;;;;;;;;;4835730;29;20092;-80
2023/10/01 01:47:19;;;;;;;0.60;0.60;;;;;;;;;;4834749;29;20038;-80
2023/10/01 01:50:27;;;;;;;0.40;0.40;;;;;;;;;;4820984;29;20031;-80
2023/10/01 01:53:34;;;;;;;0.47;0.47;;;;;;;;;;4803854;30;20046;-81
2023/10/01 01:56:39;;;;;;;0.50;0.50;;;;;;;;;;4765949;30;20039;-81
2023/10/01 01:59:49;;;;;;;0.70;0.70;;;;;;;;;;4772752;30;20052;-82
2023/10/01 02:02:39;;;;;;;0.50;0.50;;;;;;;;;;4736564;30;20045;-81
2023/10/01 02:05:57;;;;;;;0.50;0.50;;;;;;;;;;4746148;30;20052;-81
2023/10/01 02:08:58;;;;;;;0.50;0.50;;;;;;;;;;4706937;30;20045;-81
2023/10/01 02:11:55;;;;;;;0.45;0.45;;;;;;;;;;4702000;30;20046;-81
2023/10/01 02:14:48;;;;;;;0.50;0.50;;;;;;;;;;4701663;30;20193;-81
2023/10/01 02:17:15;;;;;;;0.40;0.40;;;;;;;;;;4716582;30;20053;-81
2023/10/01 02:20:22;;;;;;;0.50;0.50;;;;;;;;;;4718819;30;20045;-81
2023/10/01 02:23:02;;;;;;;0.50;0.50;;;;;;;;;;4742607;30;20043;-81
2023/10/01 02:25:52;;;;;;;0.55;0.55;;;;;;;;;;4786984;30;20068;-81
2023/10/01 02:28:19;;;;;;;0.50;0.50;;;;;;;;;;4771614;30;20046;-80
2023/10/01 02:31:08;;;;;;;0.50;0.50;;;;;;;;;;4798492;30;20044;-81
2023/10/01 02:34:00;;;;;;;0.60;0.60;;;;;;;;;;4815257;29;20043;-81
2023/10/01 02:36:30;;;;;;;0.40;0.40;;;;;;;;;;4837134;29;20517;-81
2023/10/01 02:39:10;;;;;;;0.50;0.50;;;;;;;;;;4847994;29;20037;-81
2023/10/01 02:42:20;;;;;;;0.50;0.50;;;;;;;;;;4874195;29;20096;-80
2023/10/01 02:44:47;;;;;;;0.50;0.50;;;;;;;;;;4873286;29;20037;-82
2023/10/01 02:47:20;;;;;;;0.50;0.50;;;;;;;;;;4858438;29;20037;-80
2023/10/01 02:49:49;;;;;;;0.50;0.50;;;;;;;;;;4874168;29;20077;-81
2023/10/01 02:52:36;;;;;;;0.50;0.50;;;;;;;;;;4861520;29;20033;-81
2023/10/01 02:55:18;;;;;;;0.50;0.50;;;;;;;;;;4819905;29;20014;-81
2023/10/01 02:57:44;;;;;;;0.40;0.40;;;;;;;;;;4850323;29;20084;-83
2023/10/01 03:03:41;;;;;;;0.40;0.40;;;;;;;;;;4855837;29;20034;-81
2023/10/01 03:06:33;;;;;;;0.47;0.47;;;;;;;;;;4821241;29;20039;-81
2023/10/01 03:09:28;;;;;;;0.60;0.60;;;;;;;;;;4855657;29;20113;-81
2023/10/01 03:12:36;;;;;;;0.40;0.40;;;;;;;;;;4828166;29;20042;-81
2023/10/01 03:24:42;;;;;;;0.57;0.57;;;;;;;;;;4873964;29;20041;-80
2023/10/01 03:27:26;;;;;;;0.50;0.50;;;;;;;;;;4873856;29;20510;-81
2023/10/01 03:30:21;;;;;;;0.80;0.80;;;;;;;;;;4890610;29;20033;-81
2023/10/01 03:32:49;;;;;;;0.50;0.50;;;;;;;;;;4891838;29;20045;-80
2023/10/01 03:35:42;;;;;;;0.50;0.50;;;;;;;;;;4877568;29;20029;-83
2023/10/01 03:38:14;;;;;;;0.50;0.50;;;;;;;;;;4913110;29;20028;-82
2023/10/01 03:41:07;;;;;;;0.50;0.50;;;;;;;;;;4872972;29;20048;-82
2023/10/01 03:43:44;;;;;;;0.60;0.60;;;;;;;;;;4871928;29;20066;-82
2023/10/01 03:48:58;;;;;;;0.70;0.70;;;;;;;;;;4871171;29;20494;-81
2023/10/01 03:51:58;;;;;;;0.50;0.50;;;;;;;;;;4828666;29;20034;-80
2023/10/01 03:57:29;;;;;;;0.98;0.98;;;;;;;;;;4908644;29;20169;-81
2023/10/01 04:00:29;;;;;;;0.50;0.50;;;;;;;;;;4951318;29;20074;-80
2023/10/01 04:02:58;;;;;;;0.50;0.50;;;;;;;;;;4957617;29;20024;-81
2023/10/01 04:05:31;;;;;;;0.50;0.50;;;;;;;;;;4955604;29;20411;-80
2023/10/01 04:08:08;;;;;;;0.50;0.50;;;;;;;;;;4952151;29;20047;-80
2023/10/01 04:10:38;;;;;;;0.50;0.50;;;;;;;;;;4945185;29;20550;-80
2023/10/01 04:13:20;;;;;;;0.50;0.50;;;;;;;;;;4990277;28;20102;-81
2023/10/01 04:15:49;;;;;;;0.40;0.40;;;;;;;;;;4987574;28;20486;-82
2023/10/01 04:21:34;;;;;;;0.50;0.50;;;;;;;;;;4952127;29;20024;-80
2023/10/01 04:23:47;;;;;;;0.50;0.50;;;;;;;;;;4946542;29;20052;-81
2023/10/01 04:26:19;;;;;;;0.50;0.50;;;;;;;;;;4967818;29;20024;-81
2023/10/01 04:28:54;;;;;;;0.40;0.40;;;;;;;;;;4943632;29;20042;-81
2023/10/01 04:34:12;;;;;;;0.60;0.60;;;;;;;;;;4970506;29;20034;-81
2023/10/01 04:36:40;;;;;;;0.50;0.50;;;;;;;;;;4973796;29;20096;-82
2023/10/01 04:39:06;;;;;;;0.50;0.50;;;;;;;;;;4957286;29;20039;-82
2023/10/01 04:41:39;;;;;;;0.50;0.50;;;;;;;;;;4954224;29;20036;-80
2023/10/01 04:44:06;;;;;;;0.60;0.60;;;;;;;;;;4957813;29;20035;-81
2023/10/01 04:46:37;;;;;;;0.50;0.50;;;;;;;;;;4951984;29;20067;-80
2023/10/01 04:49:26;;;;;;;1.23;0.63;;;;;;;;;;4951482;29;20032;-82
2023/10/01 04:52:00;;;;;;;0.50;0.50;;;;;;;;;;4955266;29;20101;-81
2023/10/01 04:54:28;;;;;;;0.50;0.50;;;;;;;;;;4976810;29;20036;-81
2023/10/01 04:57:00;;;;;;;0.50;0.50;;;;;;;;;;4960976;29;20039;-83
2023/10/01 04:59:56;;;;;;;0.50;0.50;;;;;;;;;;4976934;28;20043;-81
2023/10/01 05:02:25;;;;;;;0.60;0.60;;;;;;;;;;4978488;28;20027;-83
2023/10/01 05:05:08;;;;;;;0.50;0.50;;;;;;;;;;4992742;28;20038;-80
2023/10/01 05:07:37;;;;;;;0.50;0.50;;;;;;;;;;5008098;28;20061;-81
2023/10/01 05:10:08;;;;;;;0.50;0.50;;;;;;;;;;4988069;28;20035;-80
2023/10/01 05:12:34;;;;;;;0.50;0.50;;;;;;;;;;4992696;28;20156;-80
2023/10/01 05:15:17;;;;;;;0.47;0.47;;;;;;;;;;4988418;28;20035;-81
2023/10/01 05:17:47;;;;;;;0.50;0.50;;;;;;;;;;4988733;28;20076;-81
2023/10/01 05:20:17;;;;;;;0.50;0.50;;;;;;;;;;4972829;28;20094;-81
2023/10/01 05:22:53;;;;;;;0.50;0.50;;;;;;;;;;4992998;28;20058;-80
2023/10/01 05:25:26;;;;;;;0.40;0.40;;;;;;;;;;4969162;28;20066;-80
2023/10/01 05:27:56;;;;;;;0.50;0.50;;;;;;;;;;5008803;28;20042;-80
2023/10/01 05:30:43;;;;;;;0.50;0.50;;;;;;;;;;5007632;28;20034;-81
2023/10/01 05:33:35;;;;;;;0.50;0.50;;;;;;;;;;4969093;28;20031;-80
2023/10/01 05:36:08;;;;;;;0.63;0.63;;;;;;;;;;4969481;29;20547;-81
2023/10/01 05:38:36;;;;;;;0.45;0.45;;;;;;;;;;4968393;29;20158;-80
2023/10/01 05:41:09;;;;;;;0.50;0.50;;;;;;;;;;4979149;28;20042;-80
2023/10/01 05:43:53;;;;;;;0.50;0.50;;;;;;;;;;4989321;28;20037;-81
2023/10/01 05:46:22;;;;;;;0.47;0.47;;;;;;;;;;4999939;28;20482;-80
2023/10/01 05:48:55;;;;;;;0.47;0.47;;;;;;;;;;5007585;28;20042;-79
2023/10/01 05:51:30;;;;;;;0.40;0.40;;;;;;;;;;5008259;28;20124;-79
2023/10/01 05:53:58;;;;;;;0.40;0.40;;;;;;;;;;5006938;28;20027;-79
2023/10/01 05:56:36;;;;;;;0.50;0.50;;;;;;;;;;5006261;28;20027;-79
2023/10/01 05:59:06;;;;;;;0.50;0.50;;;;;;;;;;5006221;28;20050;-80
2023/10/01 06:01:33;;;;;;;0.50;0.50;;;;;;;;;;4974105;28;20034;-81
2023/10/01 06:04:00;;;;;;;0.43;0.43;;;;;;;;;;4996036;28;20057;-80
2023/10/01 06:06:27;;;;;;;0.47;0.47;;;;;;;;;;5009699;28;20030;-80
2023/10/01 06:09:00;;;;;;;0.60;0.60;;;;;;;;;;5009894;28;20045;-80
2023/10/01 06:17:00;;;;;;;0.43;0.43;;;;;;;;;;5012783;28;20033;-81
2023/10/01 06:19:32;;;;;;;0.40;0.40;;;;;;;;;;5047412;28;20029;-80
2023/10/01 06:22:12;;;;;;;0.55;0.55;;;;;;;;;;5068541;28;20088;-80
2023/10/01 06:24:39;;;;;;;0.52;0.52;;;;;;;;;;5051030;28;20144;-81
2023/10/01 06:27:09;;;;;;;0.60;0.60;;;;;;;;;;5068350;28;20102;-81
2023/10/01 06:29:49;;;;;;;0.50;0.50;;;;;;;;;;5050468;28;20021;-80
2023/10/01 06:32:15;;;;;;;0.50;0.50;;;;;;;;;;5050828;28;20029;-81
2023/10/01 06:34:43;;;;;;;0.50;0.50;;;;;;;;;;5067863;28;20025;-80
2023/10/01 06:37:12;;;;;;;1.20;0.98;;;;;;;;;;5050439;28;20040;-79
2023/10/01 06:39:41;;;;;;;0.50;0.50;;;;;;;;;;5050899;28;20109;-80
2023/10/01 06:42:20;;;;;;;0.50;0.50;;;;;;;;;;5050217;28;20052;-79
2023/10/01 06:44:50;;;;;;;0.50;0.50;;;;;;;;;;5068216;28;20095;-80
2023/10/01 06:47:22;;;;;;;0.40;0.40;;;;;;;;;;5051187;28;20032;-80
2023/10/01 06:52:41;;;;;;;0.60;0.60;;;;;;;;;;5071319;28;20025;-83
2023/10/01 06:55:25;;;;;;;0.60;0.60;;;;;;;;;;5055026;28;20089;-80
2023/10/01 06:57:51;;;;;;;0.50;0.50;;;;;;;;;;5051903;28;20053;-80
2023/10/01 07:00:22;;;;;;;0.50;0.50;;;;;;;;;;5052682;28;20123;-82
2023/10/01 07:02:51;;;;;;;0.40;0.40;;;;;;;;;;5052202;28;20029;-82
2023/10/01 07:05:21;;;;;;;0.40;0.40;;;;;;;;;;5053782;28;20020;-81
2023/10/01 07:07:49;;;;;;;0.47;0.47;;;;;;;;;;5038192;28;20044;-81
2023/10/01 07:10:19;;;;;;;0.40;0.40;;;;;;;;;;5027742;28;20049;-81
2023/10/01 07:12:57;;;;;;;0.45;0.45;;;;;;;;;;5008776;28;20141;-80
2023/10/01 07:15:26;;;;;;;0.40;0.40;;;;;;;;;;5025089;28;20037;-80
2023/10/01 07:17:52;;;;;;;0.57;0.57;;;;;;;;;;5008847;28;20026;-80
2023/10/01 07:20:18;;;;;;;0.50;0.50;;;;;;;;;;5009210;28;20034;-80
2023/10/01 07:22:45;;;;;;;0.40;0.40;;;;;;;;;;5008962;28;20129;-80
2023/10/01 07:27:56;;;;;;;0.50;0.50;;;;;;;;;;5026014;28;20072;-80
2023/10/01 07:30:39;;;;;;;0.40;0.40;;;;;;;;;;5011862;28;20034;-80
2023/10/01 07:33:14;;;;;;;0.50;0.50;;;;;;;;;;5013453;28;20034;-80
2023/10/01 07:35:44;;;;;;;0.40;0.40;;;;;;;;;;5013638;28;20030;-80
2023/10/01 07:38:13;;;;;;;0.47;0.47;;;;;;;;;;5013404;28;20112;-80
2023/10/01 07:40:57;;;;;;;0.40;0.40;;;;;;;;;;5024090;28;20033;-80
2023/10/01 07:43:24;;;;;;;0.43;0.43;;;;;;;;;;5052871;28;20025;-79
2023/10/01 07:46:01;;;;;;;0.40;0.40;;;;;;;;;;5052327;28;20112;-79
2023/10/01 07:48:29;;;;;;;0.40;0.40;;;;;;;;;;5038268;28;20032;-80
2023/10/01 07:51:22;;;;;;;0.40;0.40;;;;;;;;;;5071573;28;20080;-81
2023/10/01 07:53:49;;;;;;;1.23;1.20;;;;;;;;;;5052889;28;20025;-80
2023/10/01 07:56:25;;;;;;;0.40;0.40;;;;;;;;;;5057315;28;20048;-81
2023/10/01 08:08:13;;;;;;;0.40;0.40;;;;;;;;;;5059045;28;20031;-83
2023/10/01 08:14:26;;;;;;;0.45;0.45;;;;;;;;;;4999591;28;20070;-86
2023/10/01 08:20:44;;;;;;;0.40;0.40;;;;;;;;;;4980675;28;20037;-86
2023/10/01 08:32:49;;;;;;;0.50;0.50;;;;;;;;;;4961243;29;20096;-86
2023/10/01 08:42:17;;;;;;;0.32;0.32;;;;;;;;;;4978060;28;20071;-85
2023/10/01 08:54:48;;;;;;;0.30;0.30;;;;;;;;;;4999589;28;20142;-86
2023/10/01 08:57:45;;;;;;;0.30;0.30;;;;;;;;;;4919647;29;20040;-85
2023/10/01 09:20:07;;;;;;;0.50;0.50;;;;;;;;;;4897402;29;20036;-79
2023/10/01 09:26:06;;;;;;;0.50;0.50;;;;;;;;;;4855227;29;20102;-80
2023/10/01 09:32:14;;;;;;;0.40;0.40;;;;;;;;;;4873322;29;20045;-82
2023/10/01 09:35:38;;;;;;;0.30;0.30;;;;;;;;;;4886844;29;20033;-83
2023/10/01 09:38:57;;;;;;;0.40;0.40;;;;;;;;;;4912368;29;20088;-84
2023/10/01 09:41:40;;;;;;;0.30;0.30;;;;;;;;;;4902754;29;20130;-81
2023/10/01 09:44:46;;;;;;;0.40;0.40;;;;;;;;;;4896697;29;20092;-80
2023/10/01 09:47:42;;;;;;;0.35;0.35;;;;;;;;;;4913031;29;20032;-83
2023/10/01 10:00:52;;;;;;;0.30;0.30;;;;;;;;;;4905115;29;20451;-87
2023/10/01 10:20:15;;;;;;;0.40;0.40;;;;;;;;;;4836725;29;20053;-86
2023/10/01 10:23:29;;;;;;;0.40;0.40;;;;;;;;;;4881424;29;20101;-85
2023/10/01 10:29:16;;;;;;;0.30;0.30;;;;;;;;;;4861236;29;20119;-79
2023/10/01 10:31:44;;;;;;;0.30;0.30;;;;;;;;;;4836406;29;20038;-80
2023/10/01 10:34:25;;;;;;;0.30;0.30;;;;;;;;;;4834179;29;20114;-83
2023/10/01 10:37:19;;;;;;;0.50;0.50;;;;;;;;;;4856366;29;20038;-83
2023/10/01 10:40:28;;;;;;;0.30;0.30;;;;;;;;;;4862584;29;20094;-86
2023/10/01 10:43:16;;;;;;;0.40;0.40;;;;;;;;;;4832717;29;20105;-80
2023/10/01 10:46:10;;;;;;;1.00;0.63;;;;;;;;;;4836662;29;20038;-82
2023/10/01 10:49:02;;;;;;;0.40;0.40;;;;;;;;;;4836430;29;20034;-80
2023/10/01 10:51:45;;;;;;;0.40;0.40;;;;;;;;;;4868526;29;20102;-79
2023/10/01 10:54:31;;;;;;;0.60;0.60;;;;;;;;;;4869329;29;20102;-81
2023/10/01 10:57:04;;;;;;;0.30;0.30;;;;;;;;;;4919757;29;20068;-80
2023/10/01 10:59:47;;;;;;;0.40;0.40;;;;;;;;;;4918724;29;20043;-80
2023/10/01 11:02:18;;;;;;;0.40;0.40;;;;;;;;;;4947730;29;20036;-79
2023/10/01 11:04:45;;;;;;;0.40;0.40;;;;;;;;;;4947116;29;20023;-80
2023/10/01 11:07:19;;;;;;;0.80;0.60;;;;;;;;;;4951451;29;20032;-79
2023/10/01 11:10:14;;;;;;;0.40;0.40;;;;;;;;;;4953407;29;20063;-81
2023/10/01 11:13:27;;;;;;;0.30;0.30;;;;;;;;;;4952265;29;20052;-81
2023/10/01 11:16:17;;;;;;;0.45;0.45;;;;;;;;;;4937497;29;20043;-81
2023/10/01 11:18:50;;;;;;;0.30;0.30;;;;;;;;;;4936793;29;20209;-81
2023/10/01 11:21:39;;;;;;;0.30;0.30;;;;;;;;;;4919622;29;20028;-80
2023/10/01 11:24:29;;;;;;;0.40;0.40;;;;;;;;;;4896188;29;20061;-82
2023/10/01 11:27:19;;;;;;;0.30;0.30;;;;;;;;;;4917811;29;20028;-83
2023/10/01 11:30:27;;;;;;;0.30;0.30;;;;;;;;;;4926138;29;20043;-82
2023/10/01 11:33:12;;;;;;;1.00;0.50;;;;;;;;;;4940560;29;20114;-80
2023/10/01 11:36:11;;;;;;;0.30;0.30;;;;;;;;;;4926663;29;20037;-79
2023/10/01 11:41:38;;;;;;;0.30;0.30;;;;;;;;;;4932707;29;20177;-83
2023/10/01 11:44:16;;;;;;;0.30;0.30;;;;;;;;;;4949940;29;20036;-82
2023/10/01 11:53:29;;;;;;;0.35;0.35;;;;;;;;;;5000005;28;20176;-83
2023/10/01 11:56:16;;;;;;;0.30;0.30;;;;;;;;;;4980779;28;20029;-82
2023/10/01 11:58:56;;;;;;;0.38;0.38;;;;;;;;;;5001497;28;20067;-81
2023/10/01 12:02:43;;;;;;;0.40;0.40;;;;;;;;;;5000775;28;20137;-83
2023/10/01 12:04:56;;;;;;;0.85;0.73;;;;;;;;;;5026048;28;20045;-81
2023/10/01 12:07:43;;;;;;;0.38;0.38;;;;;;;;;;5014131;28;20030;-83
2023/10/01 12:10:31;;;;;;;0.30;0.30;;;;;;;;;;4970266;29;20129;-82
2023/10/01 12:12:58;;;;;;;0.98;0.47;;;;;;;;;;4915047;29;20159;-81
2023/10/01 12:15:52;;;;;;;0.40;0.40;;;;;;;;;;4912615;29;20071;-82
2023/10/01 12:18:46;;;;;;;0.30;0.30;;;;;;;;;;4897544;29;20079;-81
2023/10/01 12:21:26;;;;;;;0.40;0.40;;;;;;;;;;4932443;29;20040;-81
2023/10/01 12:23:55;;;;;;;0.40;0.40;;;;;;;;;;4927638;29;20032;-81
2023/10/01 12:26:58;;;;;;;0.40;0.40;;;;;;;;;;4913548;29;20043;-82
2023/10/01 12:29:42;;;;;;;0.40;0.40;;;;;;;;;;4952674;29;20036;-84
2023/10/01 12:35:46;;;;;;;0.30;0.30;;;;;;;;;;4874138;29;20030;-83
2023/10/01 12:38:39;;;;;;;0.43;0.43;;;;;;;;;;4818890;29;20123;-83
2023/10/01 12:41:24;;;;;;;0.35;0.35;;;;;;;;;;4827256;29;20046;-84
2023/10/01 12:47:00;;;;;;;0.40;0.40;;;;;;;;;;4838698;29;20033;-80
2023/10/01 12:49:38;;;;;;;0.30;0.30;;;;;;;;;;4829207;29;20542;-82
2023/10/01 12:52:08;;;;;;;0.30;0.30;;;;;;;;;;4876556;29;20046;-82
2023/10/01 12:55:01;;;;;;;0.30;0.30;;;;;;;;;;4876356;29;20037;-84
2023/10/01 12:57:33;;;;;;;0.45;0.30;;;;;;;;;;4854248;29;20030;-81
2023/10/01 13:00:43;;;;;;;0.30;0.30;;;;;;;;;;4850601;29;20050;-82
2023/10/01 13:03:15;;;;;;;0.30;0.30;;;;;;;;;;4857980;29;20111;-80
2023/10/01 13:06:12;;;;;;;0.32;0.32;;;;;;;;;;4870769;29;20042;-80
2023/10/01 13:09:34;;;;;;;0.30;0.30;;;;;;;;;;4864334;29;20038;-83
2023/10/01 13:12:18;;;;;;;0.30;0.30;;;;;;;;;;4840671;29;20096;-80
2023/10/01 13:21:16;;;;;;;0.30;0.30;;;;;;;;;;4932825;29;20067;-84
2023/10/01 13:24:24;;;;;;;0.40;0.40;;;;;;;;;;4907989;29;20095;-84
2023/10/01 13:40:29;;;;;;;0.32;0.32;;;;;;;;;;4874784;29;20029;-83
2023/10/01 14:14:04;;;;;;;0.40;0.40;;;;;;;;;;4793759;30;20127;-84
2023/10/01 14:17:23;;;;;;;0.32;0.32;;;;;;;;;;4842369;29;20120;-82
2023/10/01 14:19:58;;;;;;;1.00;0.70;;;;;;;;;;4833546;29;20070;-81
2023/10/01 14:22:50;;;;;;;0.40;0.40;;;;;;;;;;4775626;29;20039;-82
2023/10/01 14:28:36;;;;;;;0.50;0.50;;;;;;;;;;4847534;29;20429;-81
2023/10/01 14:34:47;;;;;;;0.30;0.30;;;;;;;;;;4841052;29;20049;-82
2023/10/01 14:37:32;;;;;;;0.50;0.50;;;;;;;;;;4809962;29;20091;-81
2023/10/01 14:43:30;;;;;;;0.30;0.30;;;;;;;;;;4825004;29;20130;-82
2023/10/01 14:46:40;;;;;;;0.60;0.60;;;;;;;;;;4802289;29;20046;-81
2023/10/01 14:52:45;;;;;;;0.30;0.30;;;;;;;;;;4752428;30;20044;-83
2023/10/01 14:55:43;;;;;;;0.30;0.30;;;;;;;;;;4766505;30;20036;-80
2023/10/01 14:58:45;;;;;;;0.30;0.30;;;;;;;;;;4775733;30;20517;-81
2023/10/01 15:02:15;;;;;;;0.57;0.57;;;;;;;;;;4771196;30;20048;-81
2023/10/01 15:05:09;;;;;;;0.30;0.30;;;;;;;;;;4815299;29;20042;-82
2023/10/01 15:08:14;;;;;;;0.73;0.73;;;;;;;;;;4835365;29;20045;-80
2023/10/01 15:10:49;;;;;;;0.38;0.38;;;;;;;;;;4839926;29;20113;-83
2023/10/01 15:13:49;;;;;;;0.30;0.30;;;;;;;;;;4854317;29;20075;-85
2023/10/01 15:22:22;;;;;;;0.52;0.52;;;;;;;;;;4839809;29;20103;-80
2023/10/01 15:25:10;;;;;;;0.30;0.30;;;;;;;;;;4854811;29;20137;-85
2023/10/01 15:28:09;;;;;;;0.30;0.30;;;;;;;;;;4771678;30;20013;-84
2023/10/01 15:31:01;;;;;;;0.38;0.38;;;;;;;;;;4789625;30;20040;-85
2023/10/01 15:37:02;;;;;;;0.57;0.57;;;;;;;;;;4787681;30;20043;-82
2023/10/01 15:42:34;;;;;;;0.30;0.30;;;;;;;;;;4795680;30;20409;-84
2023/10/01 15:45:32;;;;;;;0.40;0.40;;;;;;;;;;4784258;30;20032;-84
2023/10/01 15:48:07;;;;;;;0.30;0.30;;;;;;;;;;4752974;29;20148;-81
2023/10/01 15:51:02;;;;;;;0.40;0.40;;;;;;;;;;4822540;29;20041;-87
2023/10/01 15:53:51;;;;;;;0.30;0.30;;;;;;;;;;4799293;29;20047;-87
2023/10/01 15:57:05;;;;;;;0.32;0.32;;;;;;;;;;4784808;30;20032;-86
2023/10/01 16:03:07;;;;;;;0.30;0.30;;;;;;;;;;4685527;30;20069;-87
2023/10/01 16:06:17;;;;;;;0.40;0.40;;;;;;;;;;4765814;30;20061;-87
2023/10/01 16:09:27;;;;;;;0.30;0.30;;;;;;;;;;4739045;30;20027;-85
2023/10/01 16:12:27;;;;;;;0.30;0.30;;;;;;;;;;4766274;30;20044;-83
2023/10/01 16:15:32;;;;;;;0.40;0.40;;;;;;;;;;4753665;30;20060;-85
2023/10/01 16:18:34;;;;;;;0.30;0.30;;;;;;;;;;4755575;30;20486;-84
2023/10/01 16:21:21;;;;;;;0.30;0.30;;;;;;;;;;4755761;30;20073;-86
2023/10/01 16:27:25;;;;;;;0.30;0.30;;;;;;;;;;4790456;30;20050;-84
2023/10/01 16:30:19;;;;;;;0.30;0.30;;;;;;;;;;4755450;30;20064;-86
2023/10/01 16:33:13;;;;;;;0.40;0.40;;;;;;;;;;4739656;30;20125;-85
2023/10/01 16:42:30;;;;;;;0.32;0.32;;;;;;;;;;4760694;30;20140;-86
2023/10/01 16:46:00;;;;;;;0.30;0.30;;;;;;;;;;4789058;30;20036;-87
2023/10/01 16:49:03;;;;;;;0.30;0.30;;;;;;;;;;4792361;30;20036;-85
2023/10/01 16:58:54;;;;;;;0.40;0.40;;;;;;;;;;4791687;30;20039;-83
2023/10/01 17:02:19;;;;;;;0.30;0.30;;;;;;;;;;4791117;30;20061;-85
2023/10/01 17:05:18;;;;;;;0.40;0.40;;;;;;;;;;4687540;30;20035;-87
2023/10/01 17:08:24;;;;;;;0.20;0.20;;;;;;;;;;4658800;30;20035;-85
2023/10/01 17:11:36;;;;;;;0.40;0.40;;;;;;;;;;4736358;30;20033;-87
2023/10/01 17:14:39;;;;;;;0.60;0.60;;;;;;;;;;4739415;30;20040;-86
2023/10/01 17:17:27;;;;;;;0.40;0.40;;;;;;;;;;4739336;30;20033;-87
2023/10/01 17:21:12;;;;;;;0.40;0.40;;;;;;;;;;4739573;30;20059;-87
2023/10/01 17:27:39;;;;;;;0.40;0.40;;;;;;;;;;4703661;30;20069;-87
2023/10/01 17:30:34;;;;;;;0.30;0.30;;;;;;;;;;4704016;30;20060;-86
2023/10/01 17:33:38;;;;;;;0.50;0.50;;;;;;;;;;4704863;30;20049;-86
2023/10/01 17:37:09;;;;;;;0.40;0.40;;;;;;;;;;4688474;30;20031;-83
2023/10/01 17:43:30;;;;;;;0.40;0.40;;;;;;;;;;4688495;30;20164;-84
2023/10/01 17:49:35;;;;;;;0.30;0.30;;;;;;;;;;4739114;30;20062;-83
2023/10/01 17:52:48;;;;;;;0.40;0.40;;;;;;;;;;4720400;30;20038;-84
2023/10/01 18:02:17;;;;;;;0.47;0.47;;;;;;;;;;4754611;30;20074;-82
2023/10/01 18:08:36;;;;;;;0.50;0.50;;;;;;;;;;4800358;29;20126;-81
2023/10/01 18:15:10;;;;;;;0.50;0.50;;;;;;;;;;4774995;30;20457;-87
2023/10/01 18:17:55;;;;;;;0.52;0.52;;;;;;;;;;4807903;30;20036;-80
2023/10/01 18:20:23;;;;;;;0.75;0.75;;;;;;;;;;4799645;29;20043;-80
2023/10/01 18:22:57;;;;;;;0.98;0.80;;;;;;;;;;4800749;29;20553;-80
2023/10/01 18:38:40;;;;;;;0.50;0.50;;;;;;;;;;4929160;29;20062;-84
2023/10/01 18:41:17;;;;;;;0.40;0.40;;;;;;;;;;4936903;29;20046;-79
2023/10/01 18:44:14;;;;;;;0.50;0.50;;;;;;;;;;4969021;29;20038;-82
2023/10/01 18:47:20;;;;;;;0.68;0.68;;;;;;;;;;4956845;29;20035;-84
2023/10/01 19:02:51;;;;;;;0.50;0.50;;;;;;;;;;4833347;29;20099;-83
2023/10/01 19:05:39;;;;;;;0.50;0.50;;;;;;;;;;4793198;30;20031;-82
2023/10/01 19:11:15;;;;;;;0.47;0.47;;;;;;;;;;4808238;29;20046;-81
2023/10/01 19:14:04;;;;;;;0.55;0.55;;;;;;;;;;4808521;29;20039;-84
2023/10/01 19:16:56;;;;;;;0.50;0.50;;;;;;;;;;4807629;29;20032;-81
2023/10/01 19:20:02;;;;;;;0.50;0.50;;;;;;;;;;4810960;29;20039;-84
2023/10/01 19:29:13;;;;;;;0.40;0.40;;;;;;;;;;4942395;29;20056;-82
2023/10/01 19:32:03;;;;;;;0.50;0.50;;;;;;;;;;4992570;28;20050;-82
2023/10/01 19:34:37;;;;;;;0.50;0.50;;;;;;;;;;5014775;28;20030;-80
2023/10/01 19:46:19;;;;;;;0.60;0.60;;;;;;;;;;5021155;28;20022;-86
2023/10/01 19:49:13;;;;;;;0.50;0.50;;;;;;;;;;5000816;28;20057;-87
2023/10/01 19:51:56;;;;;;;0.40;0.40;;;;;;;;;;4962687;28;20028;-85
2023/10/01 19:55:13;;;;;;;0.40;0.40;;;;;;;;;;5166776;22;20047;-86
2023/10/01 19:58:00;;;;;;;0.57;0.57;;;;;;;;;;5083456;28;20035;-87
2023/10/01 20:09:41;;;;;;;0.40;0.40;;;;;;;;;;5036694;28;20049;-84
2023/10/01 20:12:50;;;;;;;0.45;0.45;;;;;;;;;;5000350;28;20051;-83
2023/10/01 20:15:56;;;;;;;0.40;0.40;;;;;;;;;;4991801;28;20019;-81
2023/10/01 20:19:00;;;;;;;0.50;0.50;;;;;;;;;;4980373;29;20038;-84
2023/10/01 20:22:21;;;;;;;0.50;0.50;;;;;;;;;;4980875;28;20040;-84
2023/10/01 20:37:47;;;;;;;0.50;0.50;;;;;;;;;;4945177;29;20023;-85
2023/10/01 20:41:15;;;;;;;0.50;0.50;;;;;;;;;;4904226;29;20017;-84
2023/10/01 20:44:06;;;;;;;0.40;0.40;;;;;;;;;;4869472;29;20159;-84
2023/10/01 20:53:09;;;;;;;0.50;0.50;;;;;;;;;;4866720;29;20045;-87
2023/10/01 21:07:44;;;;;;;0.40;0.40;;;;;;;;;;5080064;28;20040;-83
2023/10/01 21:16:55;;;;;;;0.50;0.50;;;;;;;;;;5095334;28;20062;-82
2023/10/01 21:23:20;;;;;;;0.50;0.50;;;;;;;;;;5043507;28;20126;-83
2023/10/01 21:26:29;;;;;;;0.40;0.40;;;;;;;;;;4994455;28;20019;-84
2023/10/01 21:29:18;;;;;;;0.50;0.50;;;;;;;;;;4979444;28;20031;-82
2023/10/01 21:32:19;;;;;;;0.40;0.40;;;;;;;;;;4975163;29;20059;-83
2023/10/01 21:35:24;;;;;;;0.40;0.40;;;;;;;;;;4921558;29;20031;-83
2023/10/01 21:44:33;;;;;;;0.50;0.50;;;;;;;;;;5244608;22;20056;-86
2023/10/01 21:50:52;;;;;;;0.50;0.50;;;;;;;;;;5058084;28;20016;-86
2023/10/01 21:54:12;;;;;;;0.50;0.50;;;;;;;;;;5008686;28;20041;-85
2023/10/01 21:57:27;;;;;;;0.30;0.30;;;;;;;;;;5018960;28;20011;-86
2023/10/01 22:06:39;;;;;;;0.70;0.70;;;;;;;;;;4884578;29;20075;-84
2023/10/01 22:09:29;;;;;;;0.50;0.50;;;;;;;;;;4888059;29;20105;-83
2023/10/01 22:12:34;;;;;;;0.40;0.40;;;;;;;;;;4884436;29;20115;-84
2023/10/01 22:19:17;;;;;;;0.40;0.40;;;;;;;;;;4860270;29;20021;-84
2023/10/01 22:25:24;;;;;;;0.60;0.60;;;;;;;;;;4790474;30;20120;-81
2023/10/01 22:28:10;;;;;;;0.50;0.50;;;;;;;;;;4719572;30;20037;-80
2023/10/01 22:31:26;;;;;;;0.50;0.50;;;;;;;;;;4734220;30;20112;-83
2023/10/01 22:37:37;;;;;;;0.50;0.50;;;;;;;;;;4931509;23;20047;-83
2023/10/01 22:44:10;;;;;;;0.50;0.50;;;;;;;;;;5036193;28;20040;-84
2023/10/01 22:49:55;;;;;;;0.45;0.45;;;;;;;;;;4976955;29;20042;-82
2023/10/01 22:53:01;;;;;;;0.47;0.47;;;;;;;;;;4952115;29;20036;-82
2023/10/01 22:56:08;;;;;;;0.30;0.30;;;;;;;;;;4961597;29;20052;-84
2023/10/01 22:59:20;;;;;;;0.45;0.45;;;;;;;;;;4883343;29;20018;-83
2023/10/01 23:02:23;;;;;;;0.50;0.50;;;;;;;;;;4864332;29;20014;-84
2023/10/01 23:11:59;;;;;;;0.40;0.40;;;;;;;;;;4809750;29;20035;-85
2023/10/01 23:15:13;;;;;;;0.50;0.50;;;;;;;;;;4828720;29;20046;-84
2023/10/01 23:18:35;;;;;;;0.40;0.40;;;;;;;;;;4828551;29;20034;-84
2023/10/01 23:37:15;;;;;;;0.50;0.50;;;;;;;;;;4858766;29;20020;-83
2023/10/01 23:49:48;;;;;;;0.50;0.50;;;;;;;;;;4863806;29;20069;-83
2023/10/01 23:52:54;;;;;;;0.40;0.40;;;;;;;;;;4814613;29;20027;-84
2023/10/01 23:55:54;;;;;;;0.50;0.50;;;;;;;;;;4842297;29;20046;-83
